createdAt,value
2023-03-03T00:01:54.766Z,100724.34
2023-03-03T00:04:23.822Z,100717.09
2023-03-03T00:07:06.249Z,100720.63
2023-03-03T00:09:38.472Z,100725.34
2023-03-03T00:12:23.386Z,100724.84
2023-03-03T00:14:52.425Z,100737.09
2023-03-03T00:17:25.722Z,100732.56
2023-03-03T00:19:55.756Z,100730.72
2023-03-03T00:22:31.605Z,100738.56
2023-03-03T00:25:23.532Z,100727.50
2023-03-03T00:27:56.773Z,100726.50
2023-03-03T00:30:26.953Z,100741.59
2023-03-03T00:32:57.945Z,100753.50
2023-03-03T00:35:30.698Z,100753.81
2023-03-03T00:38:01.694Z,100753.81
2023-03-03T00:40:37.989Z,100753.34
2023-03-03T00:43:19.115Z,100764.53
2023-03-03T00:45:51.306Z,100754.69
2023-03-03T00:48:25.972Z,100763.06
2023-03-03T00:50:55.235Z,100754.03
2023-03-03T00:53:28.159Z,100764.38
2023-03-03T00:55:58.636Z,100752.63
2023-03-03T00:58:27.482Z,100761.16
2023-03-03T01:00:58.852Z,100764.91
2023-03-03T01:03:28.044Z,100760.69
2023-03-03T01:05:57.372Z,100750.94
2023-03-03T01:08:25.846Z,100761.28
2023-03-03T01:10:57.197Z,100762.66
2023-03-03T01:13:30.916Z,100761.25
2023-03-03T01:16:02.104Z,100758.94
2023-03-03T01:18:33.056Z,100757.28
2023-03-03T01:21:06.430Z,100755.91
2023-03-03T01:23:36.127Z,100742.97
2023-03-03T01:26:05.460Z,100753.19
2023-03-03T01:28:37.212Z,100752.19
2023-03-03T01:31:09.731Z,100749.13
2023-03-03T01:33:42.749Z,100759.75
2023-03-03T01:36:10.748Z,100756.19
2023-03-03T01:38:43.480Z,100748.13
2023-03-03T01:41:12.659Z,100751.47
2023-03-03T01:43:46.860Z,100751.81
2023-03-03T01:46:46.544Z,100753.00
2023-03-03T01:49:16.979Z,100764.16
2023-03-03T01:51:50.170Z,100754.16
2023-03-03T01:54:23.142Z,100740.88
2023-03-03T01:56:52.679Z,100736.81
2023-03-03T01:59:27.945Z,100752.28
2023-03-03T02:01:55.973Z,100756.06
2023-03-03T02:04:24.075Z,100747.38
2023-03-03T02:06:58.074Z,100712.25
2023-03-03T02:09:33.591Z,100739.75
2023-03-03T02:12:04.528Z,100724.22
2023-03-03T02:14:33.757Z,100728.06
2023-03-03T02:17:01.675Z,100737.97
2023-03-03T02:19:40.202Z,100748.03
2023-03-03T02:22:09.164Z,100733.75
2023-03-03T02:24:44.136Z,100749.38
2023-03-03T02:27:14.083Z,100743.59
2023-03-03T02:29:41.964Z,100753.69
2023-03-03T02:32:09.906Z,100749.63
2023-03-03T02:34:50.923Z,100725.38
2023-03-03T02:37:20.940Z,100757.47
2023-03-03T02:39:48.879Z,100754.84
2023-03-03T02:42:21.987Z,100762.00
2023-03-03T02:44:51.255Z,100757.09
2023-03-03T02:47:19.116Z,100753.91
2023-03-03T02:49:47.008Z,100741.47
2023-03-03T02:52:18.057Z,100754.91
2023-03-03T02:54:46.222Z,100773.41
2023-03-03T02:57:14.138Z,100735.84
2023-03-03T02:59:43.642Z,100766.56
2023-03-03T03:02:12.032Z,100762.50
2023-03-03T03:04:40.138Z,100755.81
2023-03-03T03:07:08.212Z,100721.94
2023-03-03T03:09:36.005Z,100747.09
2023-03-03T03:12:03.885Z,100732.66
2023-03-03T03:14:31.895Z,100758.56
2023-03-03T03:17:01.463Z,100763.09
2023-03-03T03:19:30.120Z,100757.44
2023-03-03T03:21:58.297Z,100765.78
2023-03-03T03:24:26.710Z,100745.28
2023-03-03T03:26:56.949Z,100765.84
2023-03-03T03:29:25.279Z,100767.53
2023-03-03T03:31:53.262Z,100761.88
2023-03-03T03:34:25.635Z,100767.91
2023-03-03T03:36:53.464Z,100768.25
2023-03-03T03:39:21.259Z,100778.56
2023-03-03T03:41:49.114Z,100767.84
2023-03-03T03:44:16.997Z,100772.28
2023-03-03T03:46:45.367Z,100783.56
2023-03-03T03:49:13.531Z,100756.16
2023-03-03T03:51:43.257Z,100785.88
2023-03-03T03:54:12.089Z,100755.66
2023-03-03T03:56:39.974Z,100786.00
2023-03-03T03:59:08.939Z,100776.72
2023-03-03T04:01:36.886Z,100785.03
2023-03-03T04:04:05.237Z,100793.19
2023-03-03T04:06:33.519Z,100755.94
2023-03-03T04:09:02.766Z,100785.69
2023-03-03T04:11:30.648Z,100786.16
2023-03-03T04:13:58.492Z,100766.03
2023-03-03T04:16:26.490Z,100788.28
2023-03-03T04:18:57.337Z,100794.34
2023-03-03T04:21:25.440Z,100798.53
2023-03-03T04:23:55.437Z,100792.72
2023-03-03T04:26:25.985Z,100794.78
2023-03-03T04:28:53.844Z,100791.56
2023-03-03T04:31:22.061Z,100800.91
2023-03-03T04:33:49.959Z,100798.75
2023-03-03T04:36:17.901Z,100797.28
2023-03-03T04:38:45.773Z,100794.00
2023-03-03T04:41:14.316Z,100783.66
2023-03-03T04:43:45.253Z,100766.53
2023-03-03T04:46:13.103Z,100792.53
2023-03-03T04:48:43.915Z,100787.94
2023-03-03T04:51:11.790Z,100794.41
2023-03-03T04:53:39.602Z,100803.38
2023-03-03T04:56:07.846Z,100800.06
2023-03-03T04:58:36.872Z,100802.75
2023-03-03T05:01:07.612Z,100803.31
2023-03-03T05:03:35.627Z,100808.84
2023-03-03T05:06:04.844Z,100812.81
2023-03-03T05:08:34.035Z,100827.88
2023-03-03T05:11:02.348Z,100829.44
2023-03-03T05:13:31.670Z,100798.44
2023-03-03T05:15:59.488Z,100806.69
2023-03-03T05:18:31.766Z,100830.47
2023-03-03T05:20:59.667Z,100823.72
2023-03-03T05:23:28.062Z,100834.75
2023-03-03T05:25:56.356Z,100840.81
2023-03-03T05:28:24.576Z,100833.66
2023-03-03T05:30:52.551Z,100825.59
2023-03-03T05:33:20.432Z,100825.03
2023-03-03T05:35:55.315Z,100829.84
2023-03-03T05:38:23.350Z,100835.75
2023-03-03T05:40:51.628Z,100833.91
2023-03-03T05:43:19.836Z,100835.47
2023-03-03T05:45:47.733Z,100829.69
2023-03-03T05:48:15.777Z,100836.72
2023-03-03T05:50:44.314Z,100838.41
2023-03-03T05:53:21.064Z,100842.59
2023-03-03T05:55:49.401Z,100841.56
2023-03-03T05:58:17.243Z,100852.97
2023-03-03T06:00:45.183Z,100853.56
2023-03-03T06:03:13.207Z,100855.94
2023-03-03T06:05:43.035Z,100848.75
2023-03-03T06:08:11.697Z,100857.41
2023-03-03T06:10:41.141Z,100863.72
2023-03-03T06:13:09.031Z,100851.25
2023-03-03T06:15:38.084Z,100875.47
2023-03-03T06:18:06.214Z,100867.09
2023-03-03T06:20:35.359Z,100876.31
2023-03-03T06:23:03.826Z,100867.84
2023-03-03T06:25:31.873Z,100881.94
2023-03-03T06:28:01.043Z,100874.78
2023-03-03T06:30:30.720Z,100881.34
2023-03-03T06:33:09.480Z,100887.53
2023-03-03T06:35:38.197Z,100883.72
2023-03-03T06:38:06.412Z,100878.19
2023-03-03T06:40:34.568Z,100889.03
2023-03-03T06:43:06.666Z,100851.31
2023-03-03T06:45:34.504Z,100905.97
2023-03-03T06:48:02.368Z,100910.81
2023-03-03T06:50:30.227Z,100906.44
2023-03-03T06:53:06.844Z,100888.50
2023-03-03T06:55:34.716Z,100915.41
2023-03-03T06:58:10.798Z,100922.22
2023-03-03T07:00:38.633Z,100909.66
2023-03-03T07:03:13.529Z,100922.09
2023-03-03T07:05:41.442Z,100927.88
2023-03-03T07:08:15.399Z,100929.13
2023-03-03T07:10:44.162Z,100901.38
2023-03-03T07:13:26.790Z,100929.91
2023-03-03T07:15:59.583Z,100932.56
2023-03-03T07:18:38.372Z,100938.03
2023-03-03T07:21:20.327Z,100954.72
2023-03-03T07:23:50.213Z,100953.59
2023-03-03T07:26:20.799Z,100937.63
2023-03-03T07:28:55.157Z,100959.81
2023-03-03T07:31:34.990Z,100951.00
2023-03-03T07:34:08.037Z,100953.28
2023-03-03T07:36:38.415Z,100960.66
2023-03-03T07:39:24.122Z,100962.41
2023-03-03T07:41:52.553Z,100941.31
2023-03-03T07:44:30.983Z,100968.34
2023-03-03T07:47:00.730Z,100970.63
2023-03-03T07:49:36.608Z,100976.72
2023-03-03T07:52:24.631Z,100956.69
2023-03-03T07:54:53.504Z,100970.03
2023-03-03T07:57:25.877Z,100986.56
2023-03-03T08:00:01.113Z,100988.47
2023-03-03T08:02:39.757Z,100984.81
2023-03-03T08:05:28.939Z,100981.88
2023-03-03T08:08:16.830Z,100977.31
2023-03-03T08:10:49.462Z,100963.34
2023-03-03T08:13:20.808Z,100992.56
2023-03-03T08:15:52.234Z,100988.09
2023-03-03T08:18:25.931Z,100977.06
2023-03-03T08:20:56.225Z,100990.31
2023-03-03T08:23:25.328Z,100986.41
2023-03-03T08:25:53.829Z,100983.69
2023-03-03T08:28:25.920Z,100987.16
2023-03-03T08:31:14.217Z,100987.16
2023-03-03T08:33:46.703Z,100947.13
2023-03-03T08:36:16.427Z,100981.28
2023-03-03T08:38:44.629Z,100978.00
2023-03-03T08:41:13.065Z,100986.09
2023-03-03T08:43:41.111Z,100989.09
2023-03-03T08:46:12.216Z,100931.19
2023-03-03T08:48:40.927Z,100952.63
2023-03-03T08:51:12.253Z,100991.31
2023-03-03T08:53:40.457Z,100981.56
2023-03-03T08:56:10.461Z,100939.50
2023-03-03T08:58:41.974Z,100992.78
2023-03-03T09:01:15.434Z,100960.31
2023-03-03T09:03:44.305Z,100986.72
2023-03-03T09:06:12.904Z,100980.41
2023-03-03T09:08:40.861Z,100986.00
2023-03-03T09:11:11.819Z,100993.84
2023-03-03T09:13:39.672Z,100996.97
2023-03-03T09:16:17.145Z,100997.66
2023-03-03T09:18:45.319Z,100997.56
2023-03-03T09:21:26.697Z,100990.28
2023-03-03T09:23:59.225Z,100983.25
2023-03-03T09:26:41.241Z,100986.16
2023-03-03T09:29:19.900Z,100964.56
2023-03-03T09:32:03.590Z,100998.78
2023-03-03T09:34:58.735Z,101013.88
2023-03-03T09:37:37.419Z,101003.06
2023-03-03T09:40:33.447Z,101010.97
2023-03-03T09:43:09.850Z,101010.56
2023-03-03T09:45:46.012Z,101019.53
2023-03-03T09:48:27.983Z,100980.28
2023-03-03T09:51:10.877Z,101010.19
2023-03-03T09:53:56.035Z,101011.72
2023-03-03T09:56:29.220Z,101016.75
2023-03-03T09:59:10.581Z,101018.38
2023-03-03T10:01:52.239Z,101018.19
2023-03-03T10:04:46.593Z,101022.69
2023-03-03T10:07:28.932Z,100989.06
2023-03-03T10:10:20.404Z,101022.63
2023-03-03T10:13:03.454Z,101021.84
2023-03-03T10:15:42.234Z,101019.94
2023-03-03T10:18:21.707Z,101025.19
2023-03-03T10:21:03.332Z,100995.41
2023-03-03T10:23:48.529Z,101034.97
2023-03-03T10:26:38.225Z,101048.81
2023-03-03T10:29:23.616Z,101033.09
2023-03-03T10:32:10.367Z,101038.47
2023-03-03T10:35:00.395Z,101030.06
2023-03-03T10:37:41.104Z,101048.06
2023-03-03T10:40:22.483Z,101013.53
2023-03-03T10:43:26.091Z,101043.31
2023-03-03T10:46:14.088Z,101036.28
2023-03-03T10:49:00.368Z,101041.19
2023-03-03T10:51:34.934Z,101045.03
2023-03-03T10:54:23.555Z,101047.88
2023-03-03T10:57:02.187Z,101047.22
2023-03-03T10:59:42.546Z,101032.09
2023-03-03T11:02:19.036Z,101025.03
2023-03-03T11:05:24.058Z,101029.94
2023-03-03T11:07:58.971Z,101014.78
2023-03-03T11:10:46.194Z,101036.47
2023-03-03T11:13:20.590Z,101038.72
2023-03-03T11:16:01.966Z,101033.50
2023-03-03T11:18:39.146Z,101033.13
2023-03-03T11:21:15.528Z,101030.13
2023-03-03T11:24:07.109Z,101029.41
2023-03-03T11:26:46.582Z,101026.72
2023-03-03T11:29:33.048Z,101014.81
2023-03-03T11:32:11.002Z,101015.44
2023-03-03T11:34:52.911Z,100996.47
2023-03-03T11:37:25.670Z,101007.16
2023-03-03T11:39:56.883Z,100985.59
2023-03-03T11:42:33.802Z,101000.75
2023-03-03T11:45:04.530Z,100997.59
2023-03-03T11:47:40.588Z,100989.03
2023-03-03T11:50:18.098Z,100996.78
2023-03-03T11:52:53.234Z,100995.59
2023-03-03T11:55:28.319Z,100973.38
2023-03-03T11:58:08.674Z,100989.97
2023-03-03T12:00:42.151Z,100988.75
2023-03-03T12:03:34.894Z,100970.91
2023-03-03T12:06:15.420Z,100934.25
2023-03-03T12:08:58.843Z,100954.09
2023-03-03T12:11:29.442Z,100980.59
2023-03-03T12:14:03.825Z,100990.63
2023-03-03T12:16:43.920Z,100977.31
2023-03-03T12:19:23.525Z,100958.28
2023-03-03T12:22:06.241Z,100951.03
2023-03-03T12:24:54.249Z,100927.56
2023-03-03T12:27:26.840Z,100924.66
2023-03-03T12:30:07.387Z,100942.69
2023-03-03T12:32:58.793Z,100941.97
2023-03-03T12:35:35.124Z,100930.75
2023-03-03T12:38:09.625Z,100921.16
2023-03-03T12:40:44.248Z,100929.41
2023-03-03T12:43:36.171Z,100933.16
2023-03-03T12:46:14.334Z,100940.66
2023-03-03T12:48:44.978Z,100942.88
2023-03-03T12:51:22.600Z,100930.34
2023-03-03T12:54:08.332Z,100934.84
2023-03-03T12:56:42.462Z,100924.06
2023-03-03T12:59:18.267Z,100922.47
2023-03-03T13:02:01.137Z,100905.19
2023-03-03T13:04:36.542Z,100908.97
2023-03-03T13:07:08.493Z,100913.66
2023-03-03T13:09:54.377Z,100915.28
2023-03-03T13:12:33.692Z,100917.88
2023-03-03T13:15:12.554Z,100908.44
2023-03-03T13:17:55.413Z,100896.78
2023-03-03T13:20:29.044Z,100879.81
2023-03-03T13:23:07.814Z,100907.81
2023-03-03T13:25:47.277Z,100907.38
2023-03-03T13:28:33.381Z,100888.56
2023-03-03T13:31:07.726Z,100902.47
2023-03-03T13:33:38.121Z,100898.53
2023-03-03T13:36:11.497Z,100884.78
2023-03-03T13:38:45.055Z,100896.41
2023-03-03T13:41:22.363Z,100898.00
2023-03-03T13:43:55.868Z,100895.56
2023-03-03T13:46:35.018Z,100899.94
2023-03-03T13:49:29.360Z,100885.41
2023-03-03T13:52:04.116Z,100888.03
2023-03-03T13:54:51.956Z,100889.34
2023-03-03T13:57:40.691Z,100878.81
2023-03-03T14:00:22.510Z,100875.63
2023-03-03T14:03:05.116Z,100880.09
2023-03-03T14:05:39.377Z,100846.31
2023-03-03T14:08:18.849Z,100851.69
2023-03-03T14:10:54.991Z,100883.09
2023-03-03T14:13:31.456Z,100869.78
2023-03-03T14:16:06.587Z,100870.31
2023-03-03T14:18:40.353Z,100838.75
2023-03-03T14:21:16.224Z,100850.94
2023-03-03T14:23:53.745Z,100870.22
2023-03-03T14:26:22.001Z,100845.94
2023-03-03T14:28:54.624Z,100877.41
2023-03-03T14:31:26.453Z,100875.81
2023-03-03T14:34:00.485Z,100832.59
2023-03-03T14:36:32.815Z,100868.75
2023-03-03T14:39:02.454Z,100830.28
2023-03-03T14:41:41.373Z,100857.28
2023-03-03T14:44:27.283Z,100866.22
2023-03-03T14:47:21.938Z,100865.56
2023-03-03T14:49:51.854Z,100873.59
2023-03-03T14:52:28.301Z,100862.41
2023-03-03T14:55:00.551Z,100868.09
2023-03-03T14:57:46.935Z,100860.53
2023-03-03T15:00:36.589Z,100843.69
2023-03-03T15:03:21.969Z,100829.22
2023-03-03T15:05:52.614Z,100851.13
2023-03-03T15:08:32.343Z,100857.00
2023-03-03T15:11:15.027Z,100846.91
2023-03-03T15:13:42.991Z,100831.19
2023-03-03T15:16:17.785Z,100851.50
2023-03-03T15:19:05.198Z,100853.56
2023-03-03T15:21:35.789Z,100854.13
2023-03-03T15:24:11.353Z,100848.72
2023-03-03T15:26:47.679Z,100843.47
2023-03-03T15:29:22.271Z,100821.41
2023-03-03T15:31:58.850Z,100829.41
2023-03-03T15:34:38.046Z,100837.06
2023-03-03T15:37:16.698Z,100828.94
2023-03-03T15:39:55.037Z,100806.31
2023-03-03T15:42:28.777Z,100836.19
2023-03-03T15:45:11.906Z,100788.25
2023-03-03T15:47:55.495Z,100810.81
2023-03-03T15:50:37.790Z,100807.53
2023-03-03T15:53:19.671Z,100838.72
2023-03-03T15:56:09.579Z,100827.22
2023-03-03T15:59:09.101Z,100801.66
2023-03-03T16:01:45.329Z,100829.75
2023-03-03T16:04:16.288Z,100820.13
2023-03-03T16:06:52.278Z,100826.63
2023-03-03T16:09:40.923Z,100823.59
2023-03-03T16:12:27.039Z,100825.09
2023-03-03T16:15:09.141Z,100824.97
2023-03-03T16:17:45.425Z,100846.66
2023-03-03T16:20:21.872Z,100827.19
2023-03-03T16:23:08.673Z,100850.63
2023-03-03T16:25:55.839Z,100855.44
2023-03-03T16:28:31.996Z,100856.22
2023-03-03T16:31:11.172Z,100838.66
2023-03-03T16:33:45.284Z,100830.66
2023-03-03T16:36:38.440Z,100864.47
2023-03-03T16:39:15.169Z,100860.84
2023-03-03T16:41:48.487Z,100827.28
2023-03-03T16:44:35.478Z,100862.88
2023-03-03T16:47:23.400Z,100858.50
2023-03-03T16:50:13.308Z,100868.44
2023-03-03T16:52:49.146Z,100867.13
2023-03-03T16:55:21.616Z,100867.66
2023-03-03T16:58:03.755Z,100852.81
2023-03-03T17:00:42.591Z,100873.91
2023-03-03T17:03:38.556Z,100875.59
2023-03-03T17:06:16.485Z,100879.34
2023-03-03T17:09:20.419Z,100894.13
2023-03-03T17:12:12.934Z,100899.81
2023-03-03T17:14:58.479Z,100868.91
2023-03-03T17:17:38.844Z,100884.56
2023-03-03T17:20:31.233Z,100898.16
2023-03-03T17:23:15.560Z,100905.38
2023-03-03T17:25:48.988Z,100912.00
2023-03-03T17:28:36.507Z,100913.56
2023-03-03T17:31:14.564Z,100915.09
2023-03-03T17:33:57.399Z,100919.59
2023-03-03T17:36:37.430Z,100926.88
2023-03-03T17:39:20.302Z,100930.56
2023-03-03T17:41:59.328Z,100932.31
2023-03-03T17:44:36.829Z,100935.78
2023-03-03T17:47:08.276Z,100947.59
2023-03-03T17:50:10.469Z,100949.81
2023-03-03T17:53:01.350Z,100956.56
2023-03-03T17:55:50.522Z,100950.84
2023-03-03T17:59:10.120Z,100957.06
2023-03-03T18:01:55.154Z,100964.81
2023-03-03T18:04:58.389Z,100964.66
2023-03-03T18:07:49.508Z,100942.13
2023-03-03T18:10:45.094Z,100943.28
2023-03-03T18:13:37.350Z,100962.78
2023-03-03T18:16:19.396Z,100969.00
2023-03-03T18:19:00.964Z,100970.00
2023-03-03T18:21:35.271Z,100965.97
2023-03-03T18:24:29.200Z,100971.66
2023-03-03T18:26:57.527Z,100962.19
2023-03-03T18:29:29.184Z,100980.16
2023-03-03T18:32:21.462Z,100992.91
2023-03-03T18:34:52.557Z,100998.91
2023-03-03T18:37:45.563Z,100992.63
2023-03-03T18:40:29.348Z,101001.66
2023-03-03T18:43:02.558Z,100999.81
2023-03-03T18:45:49.807Z,101001.69
2023-03-03T18:48:41.720Z,101001.38
2023-03-03T18:51:10.007Z,100996.97
2023-03-03T18:53:38.427Z,101003.72
2023-03-03T18:56:12.331Z,101015.63
2023-03-03T18:58:42.368Z,101012.25
2023-03-03T19:01:41.906Z,101020.31
2023-03-03T19:04:26.282Z,101002.16
2023-03-03T19:07:15.502Z,101025.13
2023-03-03T19:09:58.264Z,101016.09
2023-03-03T19:12:51.612Z,101036.13
2023-03-03T19:15:47.342Z,101039.81
2023-03-03T19:18:22.231Z,101016.50
2023-03-03T19:20:56.119Z,101032.16
2023-03-03T19:23:42.778Z,100981.06
2023-03-03T19:26:33.149Z,101036.59
2023-03-03T19:29:18.155Z,101020.84
2023-03-03T19:31:53.733Z,101045.03
2023-03-03T19:34:28.315Z,101048.25
2023-03-03T19:37:06.428Z,101048.22
2023-03-03T19:40:01.836Z,101048.28
2023-03-03T19:42:40.121Z,101029.31
2023-03-03T19:45:23.987Z,101020.25
2023-03-03T19:48:00.477Z,101025.63
2023-03-03T19:50:45.819Z,101044.69
2023-03-03T19:53:29.441Z,101035.50
2023-03-03T19:56:19.020Z,101043.50
2023-03-03T19:58:57.804Z,101040.41
2023-03-03T20:01:38.075Z,101053.38
2023-03-03T20:04:40.347Z,101050.94
2023-03-03T20:07:22.986Z,101053.81
2023-03-03T20:09:59.709Z,101005.72
2023-03-03T20:12:39.309Z,101057.84
2023-03-03T20:15:15.198Z,101065.03
2023-03-03T20:18:01.420Z,101050.34
2023-03-03T20:21:06.599Z,101041.72
2023-03-03T20:23:46.218Z,101053.94
2023-03-03T20:26:23.451Z,101060.81
2023-03-03T20:29:04.065Z,101054.84
2023-03-03T20:31:40.496Z,101065.13
2023-03-03T20:34:21.191Z,101050.50
2023-03-03T20:37:01.468Z,101078.53
2023-03-03T20:39:54.269Z,101082.63
2023-03-03T20:42:35.029Z,101073.50
2023-03-03T20:45:19.957Z,101079.00
2023-03-03T20:47:58.324Z,101084.00
2023-03-03T20:50:37.450Z,101061.22
2023-03-03T20:53:15.247Z,101060.84
2023-03-03T20:55:58.485Z,101062.69
2023-03-03T20:58:36.036Z,101052.28
2023-03-03T21:01:08.189Z,101011.69
2023-03-03T21:03:39.355Z,101089.81
2023-03-03T21:06:16.256Z,101094.59
2023-03-03T21:08:48.325Z,101065.59
2023-03-03T21:11:18.464Z,101096.91
2023-03-03T21:13:49.274Z,101053.94
2023-03-03T21:16:31.372Z,101097.66
2023-03-03T21:19:00.609Z,101092.03
2023-03-03T21:21:32.264Z,101098.09
2023-03-03T21:24:02.061Z,101098.25
2023-03-03T21:26:47.620Z,101098.38
2023-03-03T21:29:22.350Z,101096.50
2023-03-03T21:31:53.032Z,101066.53
2023-03-03T21:34:24.206Z,101076.25
2023-03-03T21:36:56.892Z,101077.50
2023-03-03T21:39:28.013Z,101095.25
2023-03-03T21:41:59.182Z,101087.34
2023-03-03T21:44:41.406Z,101083.91
2023-03-03T21:47:12.304Z,101095.50
2023-03-03T21:49:42.167Z,101094.50
2023-03-03T21:52:12.226Z,101068.41
2023-03-03T21:54:40.422Z,101065.84
2023-03-03T21:57:09.853Z,101077.28
2023-03-03T21:59:37.883Z,101075.31
2023-03-03T22:02:06.396Z,101112.34
2023-03-03T22:04:34.820Z,101115.75
2023-03-03T22:07:02.959Z,101116.03
2023-03-03T22:09:32.198Z,101119.84
2023-03-03T22:12:01.470Z,101117.19
2023-03-03T22:14:29.644Z,101107.06
2023-03-03T22:16:58.790Z,101096.50
2023-03-03T22:19:26.912Z,101096.06
2023-03-03T22:21:55.838Z,101122.66
2023-03-03T22:24:28.130Z,101122.94
2023-03-03T22:26:57.951Z,101121.38
2023-03-03T22:29:26.385Z,101129.81
2023-03-03T22:31:55.696Z,101119.53
2023-03-03T22:34:23.762Z,101117.81
2023-03-03T22:36:51.933Z,101102.34
2023-03-03T22:39:20.177Z,101083.13
2023-03-03T22:41:48.650Z,101126.47
2023-03-03T22:44:17.886Z,101128.44
2023-03-03T22:46:45.777Z,101132.25
2023-03-03T22:49:17.980Z,101126.44
2023-03-03T22:51:46.089Z,101130.13
2023-03-03T22:54:13.970Z,101129.47
2023-03-03T22:56:41.816Z,101115.38
2023-03-03T22:59:09.784Z,101132.00
2023-03-03T23:01:39.050Z,101125.81
2023-03-03T23:04:06.859Z,101115.50
2023-03-03T23:06:34.752Z,101124.13
2023-03-03T23:09:02.693Z,101124.53
2023-03-03T23:11:30.809Z,101130.47
2023-03-03T23:14:01.264Z,101128.38
2023-03-03T23:16:29.451Z,101068.09
2023-03-03T23:18:58.885Z,101119.88
2023-03-03T23:21:26.804Z,101123.81
2023-03-03T23:23:54.660Z,101123.56
2023-03-03T23:26:22.699Z,101112.19
2023-03-03T23:28:50.652Z,101128.78
2023-03-03T23:31:18.698Z,101121.47
2023-03-03T23:33:46.614Z,101126.09
2023-03-03T23:36:15.855Z,101114.56
2023-03-03T23:38:44.032Z,101120.47
2023-03-03T23:41:12.533Z,101130.31
2023-03-03T23:43:40.780Z,101128.91
2023-03-03T23:46:09.001Z,101117.66
2023-03-03T23:48:37.174Z,101134.69
2023-03-03T23:51:05.395Z,101104.28
2023-03-03T23:53:34.717Z,101126.66
2023-03-03T23:56:02.637Z,101104.28
2023-03-03T23:58:30.889Z,101118.50
